Time;durP1;ratioP1;P1;durP2;ratioP2;P2;SDS_P1;SDS_P2;PMS_P1;PMS_P2;Temp;Humidity;BMP_temperature;BMP_pressure;BME280_temperature;BME280_humidity;BME280_pressure;Samples;Min_cycle;Max_cycle;Signal;HPM_P1;HPM_P2
2023/06/04 00:00:25;;;;;;;1.85;1.48;;;16.30;42.50;;;;;;4992626;28;20073;-47
2023/06/04 00:02:51;;;;;;;2.75;1.42;;;16.20;42.80;;;;;;4966259;28;20134;-46
2023/06/04 00:05:18;;;;;;;1.88;1.13;;;16.20;42.70;;;;;;4989792;28;20129;-46
2023/06/04 00:07:45;;;;;;;3.15;1.25;;;16.10;42.70;;;;;;4992337;28;20051;-51
2023/06/04 00:10:15;;;;;;;5.03;1.52;;;16.10;42.80;;;;;;4992089;28;20070;-47
2023/06/04 00:12:43;;;;;;;3.13;1.23;;;16.10;43.10;;;;;;4984529;28;20096;-51
2023/06/04 00:15:10;;;;;;;2.35;1.60;;;16.00;42.70;;;;;;4992164;28;20053;-45
2023/06/04 00:17:37;;;;;;;2.13;1.45;;;15.90;42.90;;;;;;4984036;28;20085;-47
2023/06/04 00:20:09;;;;;;;1.73;1.25;;;15.90;43.00;;;;;;4987857;28;20046;-46
2023/06/04 00:22:41;;;;;;;1.58;1.42;;;15.80;43.30;;;;;;4973710;28;20096;-50
2023/06/04 00:25:09;;;;;;;1.55;1.15;;;15.80;43.80;;;;;;4986610;28;20570;-47
2023/06/04 00:27:37;;;;;;;1.92;1.15;;;15.80;43.30;;;;;;4983778;28;20042;-51
2023/06/04 00:30:16;;;;;;;1.48;1.20;;;15.70;43.20;;;;;;4991340;28;20045;-49
2023/06/04 00:32:44;;;;;;;1.30;1.20;;;15.70;43.60;;;;;;4987847;28;20042;-46
2023/06/04 00:35:15;;;;;;;1.10;1.00;;;15.60;43.40;;;;;;4973214;28;20047;-50
2023/06/04 00:37:42;;;;;;;1.42;1.23;;;15.50;43.80;;;;;;4991637;28;20034;-51
2023/06/04 00:40:10;;;;;;;1.77;1.67;;;15.50;43.60;;;;;;4991410;28;20046;-50
2023/06/04 00:42:37;;;;;;;2.28;1.45;;;15.40;43.90;;;;;;4987983;28;20564;-50
2023/06/04 00:45:09;;;;;;;2.30;1.60;;;15.40;44.20;;;;;;4991968;28;20093;-49
2023/06/04 00:47:36;;;;;;;2.38;1.45;;;15.40;44.60;;;;;;4966040;28;20046;-47
2023/06/04 00:50:08;;;;;;;1.90;1.30;;;15.30;44.30;;;;;;4988358;28;20038;-48
2023/06/04 00:52:35;;;;;;;2.65;1.50;;;15.30;44.40;;;;;;4990900;28;20045;-46
2023/06/04 00:55:02;;;;;;;2.50;1.40;;;15.20;44.40;;;;;;4986978;28;20554;-47
2023/06/04 00:57:31;;;;;;;1.30;1.20;;;15.20;44.50;;;;;;4990719;28;20057;-49
2023/06/04 01:00:13;;;;;;;1.75;1.50;;;15.20;44.60;;;;;;4973401;28;20057;-48
2023/06/04 01:03:05;;;;;;;3.03;1.65;;;15.20;44.90;;;;;;4988298;28;20396;-48
2023/06/04 01:05:51;;;;;;;2.45;1.30;;;15.10;44.80;;;;;;4989992;28;20038;-48
2023/06/04 01:08:18;;;;;;;3.08;1.40;;;15.10;45.50;;;;;;4989449;28;20082;-48
2023/06/04 01:10:52;;;;;;;2.40;1.67;;;15.10;44.80;;;;;;4986735;28;20038;-51
2023/06/04 01:13:20;;;;;;;2.92;1.42;;;15.00;45.50;;;;;;4988698;28;20081;-51
2023/06/04 01:15:51;;;;;;;3.90;1.45;;;15.00;44.90;;;;;;4990753;28;20046;-48
2023/06/04 01:18:29;;;;;;;3.63;1.83;;;15.00;45.00;;;;;;4987004;28;20069;-51
2023/06/04 01:21:00;;;;;;;2.47;1.92;;;14.90;45.30;;;;;;4967793;28;20050;-49
2023/06/04 01:24:00;;;;;;;1.58;1.40;;;14.90;45.00;;;;;;4996323;28;20116;-50
2023/06/04 01:26:29;;;;;;;2.15;1.38;;;14.90;45.80;;;;;;4980452;28;20050;-45
2023/06/04 01:29:03;;;;;;;1.77;1.27;;;14.80;45.00;;;;;;4991723;28;20443;-50
2023/06/04 01:31:32;;;;;;;2.03;1.23;;;14.80;45.30;;;;;;4984572;28;20646;-50
2023/06/04 01:33:59;;;;;;;2.75;1.38;;;14.80;45.20;;;;;;4991136;28;20065;-47
2023/06/04 01:36:28;;;;;;;2.58;1.13;;;14.70;45.30;;;;;;4985389;28;20535;-48
2023/06/04 01:39:00;;;;;;;2.55;1.50;;;14.70;45.40;;;;;;4973156;28;20046;-51
2023/06/04 01:41:29;;;;;;;1.63;1.23;;;14.70;45.50;;;;;;4989138;28;20384;-48
2023/06/04 01:43:56;;;;;;;4.10;1.20;;;14.60;45.70;;;;;;4972223;28;20770;-47
2023/06/04 01:46:23;;;;;;;1.30;1.20;;;14.60;45.60;;;;;;4981899;28;20466;-51
2023/06/04 01:48:53;;;;;;;2.20;1.55;;;14.50;45.60;;;;;;4991079;28;20062;-48
2023/06/04 01:51:20;;;;;;;2.53;1.17;;;14.60;45.70;;;;;;4989794;28;20093;-47
2023/06/04 01:53:52;;;;;;;1.27;1.00;;;14.50;45.70;;;;;;4984525;28;20073;-45
2023/06/04 01:56:21;;;;;;;2.17;1.30;;;14.50;45.80;;;;;;4986167;28;20038;-49
2023/06/04 01:58:50;;;;;;;3.08;1.42;;;14.40;45.70;;;;;;4989776;28;20136;-48
2023/06/04 02:01:20;;;;;;;1.63;1.35;;;14.40;45.90;;;;;;4972645;28;20542;-47
2023/06/04 02:03:47;;;;;;;2.10;1.38;;;14.40;45.90;;;;;;4964728;28;20729;-49
2023/06/04 02:06:16;;;;;;;1.60;1.50;;;14.30;46.00;;;;;;4968939;28;20080;-45
2023/06/04 02:08:43;;;;;;;1.75;1.25;;;14.30;46.10;;;;;;4990481;28;20503;-48
2023/06/04 02:11:10;;;;;;;1.27;0.90;;;14.30;46.20;;;;;;4986983;28;20058;-47
2023/06/04 02:13:36;;;;;;;1.92;1.33;;;14.30;46.40;;;;;;4969343;28;20047;-51
2023/06/04 02:16:05;;;;;;;1.92;1.25;;;14.20;46.40;;;;;;4989572;28;20038;-51
2023/06/04 02:18:32;;;;;;;1.80;1.00;;;14.20;46.60;;;;;;4990105;28;20038;-51
2023/06/04 02:20:59;;;;;;;1.55;1.33;;;14.20;46.70;;;;;;4985956;28;20129;-50
2023/06/04 02:23:33;;;;;;;2.78;1.25;;;14.20;46.70;;;;;;4995364;28;20074;-47
2023/06/04 02:25:59;;;;;;;2.55;1.30;;;14.20;46.80;;;;;;4986861;28;20129;-50
2023/06/04 02:28:28;;;;;;;1.70;1.38;;;14.20;46.90;;;;;;4989329;28;20046;-47
2023/06/04 02:30:59;;;;;;;1.35;1.25;;;14.10;47.00;;;;;;4983108;28;20042;-47
2023/06/04 02:33:30;;;;;;;0.95;0.93;;;14.10;47.40;;;;;;4972633;28;20049;-48
2023/06/04 02:36:00;;;;;;;1.42;1.23;;;14.10;47.40;;;;;;4990206;28;20088;-46
2023/06/04 02:38:27;;;;;;;1.38;1.27;;;14.00;47.40;;;;;;4987692;28;20030;-51
2023/06/04 02:40:53;;;;;;;1.50;1.20;;;14.10;47.40;;;;;;4978329;28;20043;-49
2023/06/04 02:43:20;;;;;;;1.30;1.05;;;14.10;47.40;;;;;;4994840;28;20077;-48
2023/06/04 02:45:49;;;;;;;3.22;1.25;;;14.00;47.40;;;;;;4989299;28;20388;-45
2023/06/04 02:48:16;;;;;;;1.55;1.10;;;14.00;47.50;;;;;;4978587;28;20140;-46
2023/06/04 02:50:47;;;;;;;1.15;1.05;;;14.00;47.60;;;;;;4982041;28;20041;-48
2023/06/04 02:53:22;;;;;;;1.45;1.33;;;14.00;47.90;;;;;;4989425;28;20117;-47
2023/06/04 02:55:52;;;;;;;2.45;1.30;;;13.90;47.60;;;;;;4985078;28;20042;-45
2023/06/04 02:58:24;;;;;;;1.58;1.40;;;13.90;48.10;;;;;;4989609;28;20123;-50
2023/06/04 03:00:57;;;;;;;1.60;1.10;;;13.90;47.70;;;;;;4995186;28;20042;-50
2023/06/04 03:03:28;;;;;;;1.40;1.10;;;13.90;48.30;;;;;;4969466;28;20570;-49
2023/06/04 03:05:59;;;;;;;1.35;1.15;;;13.80;47.60;;;;;;4989659;28;20043;-51
2023/06/04 03:08:26;;;;;;;1.95;1.38;;;13.80;47.80;;;;;;4990478;28;20096;-51
2023/06/04 03:10:53;;;;;;;1.17;1.10;;;13.70;47.80;;;;;;4970391;28;20050;-49
2023/06/04 03:13:22;;;;;;;2.40;0.95;;;13.70;47.90;;;;;;4986292;28;20046;-51
2023/06/04 03:15:56;;;;;;;2.30;1.58;;;13.70;48.20;;;;;;4990840;28;20447;-51
2023/06/04 03:18:29;;;;;;;1.40;1.02;;;13.60;48.60;;;;;;4989612;28;20042;-49
2023/06/04 03:21:01;;;;;;;1.90;1.27;;;13.60;47.90;;;;;;4984434;28;20042;-49
2023/06/04 03:23:28;;;;;;;1.73;1.35;;;13.60;47.90;;;;;;4971420;28;20054;-48
2023/06/04 03:25:55;;;;;;;3.33;1.40;;;13.50;48.10;;;;;;4969095;28;20430;-48
2023/06/04 03:28:24;;;;;;;2.33;1.27;;;13.50;48.20;;;;;;4989974;28;20118;-49
2023/06/04 03:30:53;;;;;;;1.65;1.50;;;13.40;48.30;;;;;;4964261;28;20562;-49
2023/06/04 03:33:27;;;;;;;1.45;1.35;;;13.40;48.40;;;;;;4973642;28;20081;-48
2023/06/04 03:36:01;;;;;;;1.48;1.20;;;13.40;48.70;;;;;;4975628;28;20042;-48
2023/06/04 03:38:30;;;;;;;3.13;1.48;;;13.30;48.50;;;;;;4992875;28;20101;-51
2023/06/04 03:40:58;;;;;;;1.75;1.60;;;13.30;48.80;;;;;;4972543;28;20053;-51
2023/06/04 03:43:25;;;;;;;1.65;1.42;;;13.30;48.80;;;;;;4976224;28;20082;-46
2023/06/04 03:45:58;;;;;;;2.30;1.73;;;13.20;48.80;;;;;;4976009;28;20140;-51
2023/06/04 03:48:26;;;;;;;2.78;1.38;;;13.30;49.10;;;;;;4969051;28;20145;-50
2023/06/04 03:51:02;;;;;;;2.92;1.50;;;13.20;49.10;;;;;;4975207;28;20052;-49
2023/06/04 03:53:29;;;;;;;2.58;1.70;;;13.20;49.60;;;;;;4973142;28;20514;-49
2023/06/04 03:55:56;;;;;;;1.83;1.25;;;13.20;49.30;;;;;;4972731;28;20731;-51
2023/06/04 03:58:23;;;;;;;3.53;1.80;;;13.20;49.50;;;;;;4993226;28;20070;-48
2023/06/04 04:00:53;;;;;;;2.78;1.55;;;13.20;49.60;;;;;;4975566;28;20054;-48
2023/06/04 04:03:30;;;;;;;3.63;1.27;;;13.20;49.80;;;;;;4972127;28;20458;-47
2023/06/04 04:05:59;;;;;;;2.13;1.30;;;13.20;50.00;;;;;;4975536;28;20141;-46
2023/06/04 04:08:31;;;;;;;2.75;1.58;;;13.20;50.10;;;;;;4992383;28;20570;-46
2023/06/04 04:11:01;;;;;;;2.85;1.60;;;13.20;50.20;;;;;;4985151;28;20047;-49
2023/06/04 04:13:30;;;;;;;1.55;1.45;;;13.20;50.30;;;;;;4990864;28;20100;-45
2023/06/04 04:15:57;;;;;;;1.52;1.42;;;13.20;50.50;;;;;;4971824;28;20050;-51
2023/06/04 04:18:37;;;;;;;1.80;1.48;;;13.20;50.60;;;;;;4991035;28;20410;-46
2023/06/04 04:21:07;;;;;;;1.65;1.40;;;13.30;51.10;;;;;;4992332;28;20046;-46
2023/06/04 04:23:35;;;;;;;3.15;1.70;;;13.30;50.90;;;;;;4989798;28;20042;-47
2023/06/04 04:26:03;;;;;;;2.35;1.70;;;13.30;51.20;;;;;;4973070;28;20042;-46
2023/06/04 04:28:45;;;;;;;2.13;1.60;;;13.30;51.30;;;;;;4975532;28;20049;-47
2023/06/04 04:31:15;;;;;;;1.77;1.67;;;13.40;51.50;;;;;;4968228;28;20042;-49
2023/06/04 04:33:49;;;;;;;1.50;1.40;;;13.40;51.60;;;;;;4990586;28;20092;-46
2023/06/04 04:36:18;;;;;;;2.00;1.75;;;13.40;51.70;;;;;;4991665;28;20036;-47
2023/06/04 04:38:54;;;;;;;3.53;2.03;;;13.40;51.90;;;;;;4974432;28;20530;-46
2023/06/04 04:41:32;;;;;;;3.22;1.70;;;13.50;52.10;;;;;;4985562;28;20057;-45
2023/06/04 04:44:04;;;;;;;2.08;1.85;;;13.50;52.10;;;;;;4973630;28;20050;-50
2023/06/04 04:46:33;;;;;;;3.20;1.55;;;13.60;52.90;;;;;;4989861;28;20046;-47
2023/06/04 04:49:00;;;;;;;1.77;1.55;;;13.60;52.50;;;;;;4989592;28;20046;-47
2023/06/04 04:51:27;;;;;;;3.42;1.50;;;13.60;52.80;;;;;;4990422;28;20048;-51
2023/06/04 04:54:02;;;;;;;2.45;1.80;;;13.70;52.90;;;;;;4971090;28;20515;-48
2023/06/04 04:56:37;;;;;;;2.10;1.65;;;13.80;53.20;;;;;;4974249;28;20132;-48
2023/06/04 04:59:09;;;;;;;2.65;2.00;;;13.80;53.40;;;;;;4974917;28;20046;-50
2023/06/04 05:01:38;;;;;;;2.53;1.70;;;13.90;53.50;;;;;;4974121;28;20042;-46
2023/06/04 05:04:08;;;;;;;2.17;1.83;;;14.00;53.60;;;;;;4966994;28;20476;-50
2023/06/04 05:06:45;;;;;;;3.35;2.10;;;14.00;53.40;;;;;;4967934;28;20077;-51
2023/06/04 05:09:12;;;;;;;3.83;1.77;;;14.10;53.80;;;;;;4973848;28;20050;-46
2023/06/04 05:11:42;;;;;;;2.63;1.80;;;14.20;54.00;;;;;;4966842;28;20129;-47
2023/06/04 05:14:09;;;;;;;2.70;1.98;;;14.30;54.20;;;;;;4966270;28;20067;-48
2023/06/04 05:16:37;;;;;;;2.90;2.10;;;14.40;53.90;;;;;;4968287;28;20038;-49
2023/06/04 05:19:10;;;;;;;5.20;1.75;;;14.50;53.70;;;;;;4973657;28;20042;-50
2023/06/04 05:21:44;;;;;;;4.75;2.10;;;14.60;53.60;;;;;;4969391;28;20057;-51
2023/06/04 05:24:15;;;;;;;3.22;2.17;;;14.70;53.90;;;;;;4968078;28;20046;-50
2023/06/04 05:26:44;;;;;;;2.53;2.08;;;14.80;53.30;;;;;;4991870;28;20042;-51
2023/06/04 05:29:17;;;;;;;6.85;2.03;;;14.90;53.30;;;;;;4990209;28;20470;-48
2023/06/04 05:31:45;;;;;;;3.55;2.15;;;15.00;53.00;;;;;;4973294;28;20046;-46
2023/06/04 05:34:21;;;;;;;4.15;2.50;;;15.10;53.00;;;;;;4981620;28;20050;-47
2023/06/04 05:36:52;;;;;;;2.13;1.90;;;15.20;52.70;;;;;;4975372;28;20073;-48
2023/06/04 05:39:20;;;;;;;3.47;2.10;;;15.30;53.10;;;;;;4990018;28;20050;-47
2023/06/04 05:42:06;;;;;;;2.88;2.20;;;15.30;52.60;;;;;;4965626;28;20071;-47
2023/06/04 05:44:38;;;;;;;4.20;2.63;;;15.40;52.20;;;;;;4989662;28;20481;-48
2023/06/04 05:47:06;;;;;;;2.20;2.00;;;15.50;52.10;;;;;;4990346;28;20049;-47
2023/06/04 05:49:38;;;;;;;;;;;15.60;51.70;;;;;;4968555;28;20041;-50
2023/06/04 05:52:06;;;;;;;3.40;2.45;;;15.70;51.00;;;;;;4991716;28;19922;-51
2023/06/04 05:54:38;;;;;;;3.78;2.63;;;15.70;50.80;;;;;;4968542;28;20046;-45
2023/06/04 05:57:08;;;;;;;3.35;2.25;;;15.80;50.80;;;;;;4974123;28;20061;-48
2023/06/04 05:59:35;;;;;;;6.13;3.58;;;15.80;50.80;;;;;;4990782;28;20446;-46
2023/06/04 06:02:05;;;;;;;7.63;2.65;;;15.90;50.50;;;;;;4969074;28;20054;-45
2023/06/04 06:04:32;;;;;;;2.78;2.58;;;16.00;50.60;;;;;;4971252;28;20078;-49
2023/06/04 06:07:04;;;;;;;4.77;2.40;;;16.00;50.60;;;;;;4991607;28;20053;-48
2023/06/04 06:09:35;;;;;;;3.97;2.88;;;16.10;50.40;;;;;;4990646;28;20495;-49
2023/06/04 06:12:02;;;;;;;4.57;2.55;;;16.10;50.30;;;;;;4986708;28;20089;-51
2023/06/04 06:14:33;;;;;;;2.40;2.20;;;16.20;50.30;;;;;;4987702;28;20038;-48
2023/06/04 06:17:02;;;;;;;3.70;2.73;;;16.30;50.30;;;;;;4974073;28;20578;-48
2023/06/04 06:19:34;;;;;;;3.55;2.17;;;16.30;50.00;;;;;;4972691;28;20050;-45
2023/06/04 06:22:00;;;;;;;4.60;3.10;;;16.40;49.80;;;;;;4967287;28;20069;-47
2023/06/04 06:24:29;;;;;;;3.45;2.50;;;16.50;49.90;;;;;;4984658;28;20039;-46
2023/06/04 06:27:01;;;;;;;3.10;2.58;;;16.50;49.50;;;;;;4989352;28;20137;-50
2023/06/04 06:29:30;;;;;;;3.13;2.55;;;16.50;49.50;;;;;;4988455;28;20514;-49
2023/06/04 06:31:59;;;;;;;5.03;2.83;;;16.60;49.20;;;;;;4971297;28;20082;-46
2023/06/04 06:34:26;;;;;;;3.47;2.17;;;16.70;49.20;;;;;;4989116;28;20069;-48
2023/06/04 06:36:55;;;;;;;2.80;2.58;;;16.70;49.00;;;;;;4991858;28;20046;-48
2023/06/04 06:39:32;;;;;;;2.75;2.25;;;16.80;49.00;;;;;;4989752;28;20533;-51
2023/06/04 06:41:58;;;;;;;5.90;2.42;;;16.90;49.10;;;;;;4982958;28;20047;-48
2023/06/04 06:44:39;;;;;;;4.88;2.30;;;16.90;48.70;;;;;;4969213;28;20050;-46
2023/06/04 06:47:08;;;;;;;2.40;2.20;;;17.00;48.40;;;;;;4972844;28;20064;-49
2023/06/04 06:49:35;;;;;;;3.72;2.63;;;17.00;48.30;;;;;;4987445;28;20041;-46
2023/06/04 06:52:04;;;;;;;2.90;2.40;;;17.10;48.20;;;;;;4990726;28;20043;-51
2023/06/04 06:54:31;;;;;;;3.38;2.03;;;17.20;48.30;;;;;;4982822;28;20138;-45
2023/06/04 06:56:58;;;;;;;3.92;2.28;;;17.20;48.00;;;;;;4983917;28;20030;-48
2023/06/04 06:59:25;;;;;;;3.30;2.38;;;17.30;47.80;;;;;;4989288;28;20050;-47
2023/06/04 07:01:54;;;;;;;5.57;2.17;;;17.40;48.00;;;;;;4990457;28;20141;-46
2023/06/04 07:04:25;;;;;;;3.50;1.80;;;17.40;47.60;;;;;;4984583;28;20538;-47
2023/06/04 07:06:52;;;;;;;2.65;1.90;;;17.50;47.60;;;;;;4986832;28;20073;-48
2023/06/04 07:09:26;;;;;;;2.25;1.88;;;17.50;47.50;;;;;;4993515;28;20101;-47
2023/06/04 07:11:57;;;;;;;2.72;2.05;;;17.60;47.70;;;;;;4992911;28;20798;-47
2023/06/04 07:14:29;;;;;;;5.72;1.73;;;17.60;47.50;;;;;;4987749;28;20435;-48
2023/06/04 07:17:00;;;;;;;2.50;2.03;;;17.70;47.10;;;;;;4994659;28;20050;-47
2023/06/04 07:19:29;;;;;;;2.50;1.85;;;17.80;46.90;;;;;;4993002;28;20145;-47
2023/06/04 07:21:58;;;;;;;3.70;1.95;;;17.90;46.90;;;;;;4994295;28;20050;-47
2023/06/04 07:24:27;;;;;;;3.85;2.10;;;17.90;46.70;;;;;;4982130;28;20042;-46
2023/06/04 07:26:57;;;;;;;4.72;2.38;;;18.00;46.50;;;;;;4994442;28;20530;-46
2023/06/04 07:29:23;;;;;;;3.13;1.73;;;18.00;46.20;;;;;;4993074;28;20566;-47
2023/06/04 07:31:50;;;;;;;1.88;1.75;;;18.10;46.40;;;;;;4990632;28;20086;-48
2023/06/04 07:34:19;;;;;;;2.95;2.00;;;18.20;46.20;;;;;;4989605;28;20054;-47
2023/06/04 07:36:50;;;;;;;2.40;2.13;;;18.30;45.80;;;;;;4994940;28;20053;-47
2023/06/04 07:39:20;;;;;;;3.65;2.47;;;18.30;45.80;;;;;;4993015;28;20145;-47
2023/06/04 07:41:47;;;;;;;3.75;2.17;;;18.40;45.50;;;;;;4989250;28;20069;-48
2023/06/04 07:44:13;;;;;;;4.22;2.15;;;18.50;45.30;;;;;;4991044;28;20521;-48
2023/06/04 07:46:44;;;;;;;4.93;2.80;;;18.50;45.70;;;;;;4984974;28;20081;-47
2023/06/04 07:49:11;;;;;;;2.35;1.98;;;18.60;45.70;;;;;;4990887;28;20069;-46
2023/06/04 07:51:40;;;;;;;6.20;1.98;;;18.60;45.40;;;;;;4985940;28;20093;-47
2023/06/04 07:54:08;;;;;;;2.42;2.17;;;18.70;45.60;;;;;;4989493;28;20062;-49
2023/06/04 07:56:38;;;;;;;5.22;2.33;;;18.80;45.50;;;;;;4992492;28;20089;-47
2023/06/04 07:59:07;;;;;;;6.90;2.38;;;18.80;45.20;;;;;;4991697;28;20069;-51
2023/06/04 08:01:34;;;;;;;4.90;2.20;;;18.90;44.90;;;;;;4993473;28;20569;-48
2023/06/04 08:04:02;;;;;;;3.03;2.10;;;19.00;45.00;;;;;;4987005;28;20058;-49
2023/06/04 08:06:30;;;;;;;3.13;1.95;;;19.10;45.60;;;;;;4993218;28;20073;-50
2023/06/04 08:08:59;;;;;;;4.68;2.15;;;19.10;45.00;;;;;;4992790;28;20046;-48
2023/06/04 08:11:28;;;;;;;6.00;2.50;;;19.20;45.10;;;;;;4989545;28;20050;-48
2023/06/04 08:13:55;;;;;;;4.20;1.95;;;19.20;44.80;;;;;;4992811;28;20113;-48
2023/06/04 08:16:24;;;;;;;3.00;1.83;;;19.30;44.80;;;;;;4991527;28;20069;-47
2023/06/04 08:18:53;;;;;;;2.55;2.00;;;19.40;44.90;;;;;;4989165;28;20525;-48
2023/06/04 08:21:26;;;;;;;3.08;2.05;;;19.50;44.30;;;;;;4993037;28;20046;-48
2023/06/04 08:23:55;;;;;;;2.97;1.95;;;19.50;44.10;;;;;;4987907;28;20050;-49
2023/06/04 08:26:36;;;;;;;2.78;1.90;;;19.60;43.70;;;;;;4991725;28;20510;-47
2023/06/04 08:29:06;;;;;;;2.22;1.42;;;19.70;43.30;;;;;;4992260;28;20388;-48
2023/06/04 08:31:33;;;;;;;2.75;1.58;;;19.80;43.30;;;;;;4985843;28;20088;-47
2023/06/04 08:34:05;;;;;;;3.80;1.60;;;19.80;43.10;;;;;;4991001;28;20129;-52
2023/06/04 08:36:33;;;;;;;2.08;1.60;;;19.90;43.30;;;;;;4992472;28;20042;-48
2023/06/04 08:39:03;;;;;;;3.67;1.80;;;20.00;43.00;;;;;;4988512;28;20574;-51
2023/06/04 08:41:49;;;;;;;4.32;1.77;;;20.10;42.50;;;;;;4992615;28;20392;-49
2023/06/04 08:44:18;;;;;;;4.28;1.85;;;20.10;42.10;;;;;;4991875;28;20137;-45
2023/06/04 08:46:47;;;;;;;3.95;1.98;;;20.20;42.60;;;;;;4987673;28;20495;-51
2023/06/04 08:49:18;;;;;;;;;;;20.30;42.30;;;;;;4971789;28;20050;-47
2023/06/04 08:51:47;;;;;;;3.03;1.60;;;20.40;41.80;;;;;;4992677;28;19956;-47
2023/06/04 08:54:14;;;;;;;2.55;1.70;;;20.40;41.40;;;;;;4986467;28;20058;-47
2023/06/04 08:56:47;;;;;;;2.65;1.63;;;20.50;41.10;;;;;;4991574;28;20053;-47
2023/06/04 08:59:17;;;;;;;2.35;1.50;;;20.60;40.40;;;;;;4992310;28;20519;-47
2023/06/04 09:01:47;;;;;;;1.75;1.63;;;20.70;40.80;;;;;;4990232;28;20046;-48
2023/06/04 09:04:16;;;;;;;1.60;1.17;;;20.70;39.90;;;;;;4988837;28;20050;-49
2023/06/04 09:06:48;;;;;;;2.38;1.65;;;20.80;39.90;;;;;;4991991;28;20045;-49
2023/06/04 09:09:21;;;;;;;2.88;1.77;;;20.90;39.50;;;;;;4991256;28;20093;-48
2023/06/04 09:11:59;;;;;;;5.55;1.95;;;21.10;39.50;;;;;;4990297;28;20052;-47
2023/06/04 09:14:28;;;;;;;2.50;2.22;;;21.00;38.90;;;;;;4989876;28;20046;-48
2023/06/04 09:16:58;;;;;;;2.20;2.00;;;21.10;38.30;;;;;;4992109;28;20039;-47
2023/06/04 09:19:27;;;;;;;3.03;1.60;;;21.10;38.10;;;;;;4988662;28;20096;-47
2023/06/04 09:21:56;;;;;;;1.98;1.80;;;21.30;38.50;;;;;;4988687;28;20045;-48
2023/06/04 09:24:47;;;;;;;1.88;1.55;;;21.30;38.50;;;;;;4985762;28;20175;-47
2023/06/04 09:27:27;;;;;;;2.20;2.00;;;21.40;38.50;;;;;;4988983;28;20045;-47
2023/06/04 09:30:00;;;;;;;3.30;1.90;;;21.50;38.10;;;;;;4984881;28;20121;-47
2023/06/04 09:32:30;;;;;;;3.17;1.90;;;21.50;38.30;;;;;;4990570;28;20419;-50
2023/06/04 09:35:15;;;;;;;1.95;1.60;;;21.60;37.70;;;;;;4991378;28;20462;-48
2023/06/04 09:37:51;;;;;;;2.78;2.17;;;21.70;37.50;;;;;;4983900;28;20046;-51
2023/06/04 09:40:21;;;;;;;6.20;2.60;;;21.70;37.10;;;;;;4969814;28;20073;-47
2023/06/04 09:42:59;;;;;;;4.72;2.05;;;21.80;37.00;;;;;;4991848;28;20525;-47
2023/06/04 09:45:29;;;;;;;3.55;2.00;;;21.90;37.40;;;;;;4990963;28;20042;-47
2023/06/04 09:47:56;;;;;;;1.73;1.60;;;21.90;37.40;;;;;;4986137;28;20050;-50
2023/06/04 09:50:47;;;;;;;3.30;1.70;;;22.00;36.80;;;;;;4990954;28;20101;-49
2023/06/04 09:53:16;;;;;;;2.00;1.80;;;22.10;36.50;;;;;;4974379;28;20507;-48
2023/06/04 09:55:59;;;;;;;2.47;2.25;;;22.20;36.20;;;;;;4985816;28;20061;-48
2023/06/04 09:58:27;;;;;;;2.20;1.80;;;22.20;35.40;;;;;;4990440;28;20049;-47
2023/06/04 10:00:58;;;;;;;3.05;2.08;;;22.30;35.80;;;;;;4991232;28;20125;-50
2023/06/04 10:03:32;;;;;;;5.27;2.40;;;22.30;35.90;;;;;;4989613;28;20047;-48
2023/06/04 10:06:02;;;;;;;;;;;22.40;35.20;;;;;;4988033;28;20124;-47
2023/06/04 10:08:33;;;;;;;2.08;1.85;;;22.40;36.10;;;;;;4990581;28;19928;-48
2023/06/04 10:11:01;;;;;;;2.60;2.33;;;22.50;35.80;;;;;;4988802;28;20050;-50
2023/06/04 10:13:45;;;;;;;3.83;1.65;;;22.50;35.40;;;;;;4989929;28;20458;-52
2023/06/04 10:16:23;;;;;;;4.03;2.13;;;22.60;35.40;;;;;;4990888;28;20042;-49
2023/06/04 10:19:03;;;;;;;4.60;1.73;;;22.60;35.20;;;;;;4990558;28;20415;-51
2023/06/04 10:21:36;;;;;;;1.83;1.50;;;22.60;34.80;;;;;;4967528;28;20061;-47
2023/06/04 10:24:03;;;;;;;2.90;1.70;;;22.70;35.40;;;;;;4985342;28;20046;-51
2023/06/04 10:26:33;;;;;;;3.40;1.77;;;22.70;34.60;;;;;;4989999;28;20050;-47
2023/06/04 10:29:02;;;;;;;4.55;1.48;;;22.80;34.60;;;;;;4990971;28;20050;-48
2023/06/04 10:31:32;;;;;;;2.40;1.45;;;22.80;33.90;;;;;;4982529;28;20090;-50
2023/06/04 10:34:00;;;;;;;2.08;1.30;;;22.90;33.80;;;;;;4990010;28;20050;-48
2023/06/04 10:36:30;;;;;;;3.03;1.40;;;23.00;34.10;;;;;;4992008;28;20053;-50
2023/06/04 10:38:56;;;;;;;1.65;1.55;;;23.00;33.80;;;;;;4986701;28;20039;-48
2023/06/04 10:41:24;;;;;;;4.43;1.75;;;23.10;33.10;;;;;;4995934;28;20094;-48
2023/06/04 10:44:02;;;;;;;1.88;1.40;;;23.10;33.50;;;;;;4996461;28;20128;-50
2023/06/04 10:46:49;;;;;;;2.80;1.47;;;23.20;33.80;;;;;;4995006;28;20050;-51
2023/06/04 10:49:29;;;;;;;1.65;0.77;;;23.20;33.70;;;;;;4994354;28;20293;-48
2023/06/04 10:51:57;;;;;;;1.02;1.00;;;23.30;32.80;;;;;;4995551;28;20061;-50
2023/06/04 10:54:25;;;;;;;1.33;1.10;;;23.40;33.20;;;;;;4991013;28;20035;-49
2023/06/04 10:56:54;;;;;;;2.88;1.27;;;23.40;33.00;;;;;;4997465;28;20039;-48
2023/06/04 10:59:25;;;;;;;2.92;1.30;;;23.40;32.80;;;;;;4996216;28;20045;-47
2023/06/04 11:02:06;;;;;;;1.33;1.23;;;23.50;32.30;;;;;;4994759;28;20565;-48
2023/06/04 11:04:32;;;;;;;2.10;1.15;;;23.60;31.70;;;;;;4994808;28;20554;-48
2023/06/04 11:07:09;;;;;;;1.45;1.13;;;23.60;32.40;;;;;;4979987;28;20078;-52
2023/06/04 11:09:57;;;;;;;1.40;1.30;;;23.70;32.10;;;;;;4975951;28;20466;-49
2023/06/04 11:12:23;;;;;;;2.53;2.17;;;23.80;32.20;;;;;;4994547;28;20038;-50
2023/06/04 11:14:57;;;;;;;3.22;1.40;;;23.80;32.10;;;;;;4995848;28;20042;-48
2023/06/04 11:17:24;;;;;;;1.42;1.10;;;24.00;32.30;;;;;;4978244;28;20056;-50
2023/06/04 11:19:55;;;;;;;2.83;1.17;;;24.00;32.00;;;;;;4991547;28;20044;-48
2023/06/04 11:22:24;;;;;;;2.50;1.45;;;24.00;32.10;;;;;;4978014;28;20503;-52
2023/06/04 11:24:58;;;;;;;3.25;0.90;;;24.10;31.60;;;;;;4990182;28;20046;-49
2023/06/04 11:27:28;;;;;;;1.73;1.48;;;24.20;31.80;;;;;;4997034;28;20074;-47
2023/06/04 11:30:03;;;;;;;1.60;1.15;;;24.20;31.20;;;;;;4989768;28;20039;-48
2023/06/04 11:32:33;;;;;;;2.58;1.20;;;24.30;31.60;;;;;;4995471;28;20100;-51
2023/06/04 11:35:05;;;;;;;5.07;1.67;;;24.30;31.80;;;;;;4995122;28;20097;-52
2023/06/04 11:37:37;;;;;;;1.73;1.40;;;24.30;31.60;;;;;;4993220;28;20459;-52
2023/06/04 11:40:26;;;;;;;3.42;1.40;;;24.40;31.80;;;;;;4993414;28;20065;-49
2023/06/04 11:42:53;;;;;;;2.28;1.35;;;24.50;31.60;;;;;;4978546;28;20503;-50
2023/06/04 11:45:29;;;;;;;2.65;1.58;;;24.50;31.90;;;;;;4979382;28;20048;-49
2023/06/04 11:47:57;;;;;;;2.92;1.30;;;24.60;31.00;;;;;;4994278;28;20101;-50
2023/06/04 11:50:31;;;;;;;2.38;1.25;;;24.70;31.20;;;;;;4994938;28;20100;-52
2023/06/04 11:53:01;;;;;;;2.13;1.70;;;24.70;31.20;;;;;;4992950;28;20043;-48
2023/06/04 11:55:30;;;;;;;2.33;1.30;;;24.70;31.00;;;;;;4987719;28;20039;-51
2023/06/04 11:57:57;;;;;;;1.58;1.27;;;24.80;30.70;;;;;;4987802;28;20112;-47
2023/06/04 12:00:26;;;;;;;2.05;1.17;;;24.90;30.70;;;;;;4992400;28;20050;-49
2023/06/04 12:02:54;;;;;;;3.72;1.50;;;25.00;30.30;;;;;;4987760;28;20074;-50
2023/06/04 12:05:29;;;;;;;1.50;1.40;;;25.10;30.00;;;;;;4992880;28;20061;-51
2023/06/04 12:08:10;;;;;;;1.52;1.40;;;25.10;30.30;;;;;;5028973;22;20099;-46
2023/06/04 12:10:42;;;;;;;2.42;1.63;;;25.20;30.20;;;;;;5027911;28;20064;-45
2023/06/04 12:13:09;;;;;;;3.63;1.45;;;25.30;30.30;;;;;;5032016;28;20497;-45
2023/06/04 12:15:36;;;;;;;1.90;1.45;;;25.40;30.30;;;;;;5031417;28;20057;-48
2023/06/04 12:18:09;;;;;;;3.20;1.90;;;25.40;29.90;;;;;;5013674;28;20684;-47
2023/06/04 12:20:42;;;;;;;3.22;1.90;;;25.50;29.80;;;;;;5024937;28;20374;-47
2023/06/04 12:23:20;;;;;;;2.75;2.10;;;25.60;29.80;;;;;;5032481;28;20049;-48
2023/06/04 12:26:03;;;;;;;2.38;1.67;;;25.60;28.80;;;;;;5027003;28;20416;-48
2023/06/04 12:28:29;;;;;;;2.20;2.00;;;25.70;29.40;;;;;;5032631;28;20124;-47
2023/06/04 12:31:02;;;;;;;1.67;1.58;;;25.80;29.00;;;;;;5026716;28;20049;-49
2023/06/04 12:33:33;;;;;;;1.63;1.35;;;25.80;28.90;;;;;;5031905;28;20041;-48
2023/06/04 12:36:05;;;;;;;2.33;1.77;;;25.90;28.60;;;;;;5032110;28;20048;-47
2023/06/04 12:38:34;;;;;;;3.70;1.55;;;25.90;28.60;;;;;;5030084;28;20088;-48
2023/06/04 12:41:00;;;;;;;3.28;1.40;;;25.90;29.30;;;;;;5029911;28;20042;-47
2023/06/04 12:43:33;;;;;;;2.20;1.55;;;26.00;29.10;;;;;;5031783;28;20564;-45
2023/06/04 12:46:02;;;;;;;1.98;1.27;;;26.10;28.40;;;;;;5029852;28;20046;-48
2023/06/04 12:48:33;;;;;;;4.10;1.65;;;26.20;28.20;;;;;;5030645;28;20056;-45
2023/06/04 12:51:02;;;;;;;2.38;1.98;;;26.20;28.10;;;;;;5032178;28;20536;-45
2023/06/04 12:53:37;;;;;;;1.90;1.60;;;26.20;28.00;;;;;;5029666;28;20116;-45
2023/06/04 12:56:04;;;;;;;3.10;1.90;;;26.30;28.20;;;;;;5025506;28;20060;-47
2023/06/04 12:58:32;;;;;;;1.60;1.50;;;26.40;28.30;;;;;;5024391;28;20049;-46
2023/06/04 13:01:01;;;;;;;1.80;1.70;;;26.40;28.00;;;;;;5031598;28;20453;-48
2023/06/04 13:03:34;;;;;;;2.00;1.65;;;26.60;27.90;;;;;;5029188;28;20048;-46
2023/06/04 13:06:03;;;;;;;1.92;1.73;;;26.70;27.90;;;;;;5029288;28;20516;-45